sensor_id;sensor_type;location;lat;lon;timestamp;temperature;humidity
64987;DHT22;67903;52.108;9.358;2024-01-15T00:01:49;0.80;93.70
64987;DHT22;67903;52.108;9.358;2024-01-15T00:04:38;0.90;93.40
64987;DHT22;67903;52.108;9.358;2024-01-15T00:07:24;1.00;92.60
64987;DHT22;67903;52.108;9.358;2024-01-15T00:10:09;1.00;92.10
64987;DHT22;67903;52.108;9.358;2024-01-15T00:12:55;1.00;92.10
64987;DHT22;67903;52.108;9.358;2024-01-15T00:15:41;1.10;91.30
64987;DHT22;67903;52.108;9.358;2024-01-15T00:18:26;1.10;91.10
64987;DHT22;67903;52.108;9.358;2024-01-15T00:21:12;1.10;90.60
64987;DHT22;67903;52.108;9.358;2024-01-15T00:23:58;1.20;90.50
64987;DHT22;67903;52.108;9.358;2024-01-15T00:26:43;1.10;90.40
64987;DHT22;67903;52.108;9.358;2024-01-15T00:29:29;1.10;89.30
64987;DHT22;67903;52.108;9.358;2024-01-15T00:32:14;1.10;90.30
64987;DHT22;67903;52.108;9.358;2024-01-15T00:35:00;1.10;89.20
64987;DHT22;67903;52.108;9.358;2024-01-15T00:37:45;1.20;89.10
64987;DHT22;67903;52.108;9.358;2024-01-15T00:40:31;1.20;89.50
64987;DHT22;67903;52.108;9.358;2024-01-15T00:43:17;1.20;88.80
64987;DHT22;67903;52.108;9.358;2024-01-15T00:46:04;1.20;86.90
64987;DHT22;67903;52.108;9.358;2024-01-15T00:48:50;1.10;87.40
64987;DHT22;67903;52.108;9.358;2024-01-15T00:51:35;1.20;86.40
64987;DHT22;67903;52.108;9.358;2024-01-15T00:54:21;1.20;85.70
64987;DHT22;67903;52.108;9.358;2024-01-15T00:57:06;1.20;85.30
64987;DHT22;67903;52.108;9.358;2024-01-15T00:59:52;1.20;85.40
64987;DHT22;67903;52.108;9.358;2024-01-15T01:02:37;1.00;85.60
64987;DHT22;67903;52.108;9.358;2024-01-15T01:05:23;1.20;84.10
64987;DHT22;67903;52.108;9.358;2024-01-15T01:08:08;1.20;84.00
64987;DHT22;67903;52.108;9.358;2024-01-15T01:10:56;1.10;85.20
64987;DHT22;67903;52.108;9.358;2024-01-15T01:13:42;1.20;84.00
64987;DHT22;67903;52.108;9.358;2024-01-15T01:16:27;1.30;83.60
64987;DHT22;67903;52.108;9.358;2024-01-15T01:19:13;1.20;84.30
64987;DHT22;67903;52.108;9.358;2024-01-15T01:21:58;1.20;84.70
64987;DHT22;67903;52.108;9.358;2024-01-15T01:24:44;1.10;85.20
64987;DHT22;67903;52.108;9.358;2024-01-15T01:27:29;1.20;85.00
64987;DHT22;67903;52.108;9.358;2024-01-15T01:30:15;1.10;86.10
64987;DHT22;67903;52.108;9.358;2024-01-15T01:33:00;1.00;85.30
64987;DHT22;67903;52.108;9.358;2024-01-15T01:35:46;1.00;85.70
64987;DHT22;67903;52.108;9.358;2024-01-15T01:38:32;1.10;84.30
64987;DHT22;67903;52.108;9.358;2024-01-15T01:41:18;1.10;85.40
64987;DHT22;67903;52.108;9.358;2024-01-15T01:44:03;1.10;84.60
64987;DHT22;67903;52.108;9.358;2024-01-15T01:46:49;1.10;85.30
64987;DHT22;67903;52.108;9.358;2024-01-15T01:49:35;1.10;84.10
64987;DHT22;67903;52.108;9.358;2024-01-15T01:52:22;1.10;84.00
64987;DHT22;67903;52.108;9.358;2024-01-15T01:55:09;1.20;83.80
64987;DHT22;67903;52.108;9.358;2024-01-15T01:57:56;1.10;84.90
64987;DHT22;67903;52.108;9.358;2024-01-15T02:00:41;1.10;84.90
64987;DHT22;67903;52.108;9.358;2024-01-15T02:03:27;1.20;83.20
64987;DHT22;67903;52.108;9.358;2024-01-15T02:06:14;1.30;83.30
64987;DHT22;67903;52.108;9.358;2024-01-15T02:09:00;1.40;82.60
64987;DHT22;67903;52.108;9.358;2024-01-15T02:11:49;1.40;82.40
64987;DHT22;67903;52.108;9.358;2024-01-15T02:14:35;1.40;82.50
64987;DHT22;67903;52.108;9.358;2024-01-15T02:17:20;1.40;82.10
64987;DHT22;67903;52.108;9.358;2024-01-15T02:20:06;1.40;82.10
64987;DHT22;67903;52.108;9.358;2024-01-15T02:22:52;1.40;81.50
64987;DHT22;67903;52.108;9.358;2024-01-15T02:25:42;1.40;81.70
64987;DHT22;67903;52.108;9.358;2024-01-15T02:28:28;1.40;82.10
64987;DHT22;67903;52.108;9.358;2024-01-15T02:31:14;1.40;81.50
64987;DHT22;67903;52.108;9.358;2024-01-15T02:33:59;1.40;81.30
64987;DHT22;67903;52.108;9.358;2024-01-15T02:36:45;1.40;81.50
64987;DHT22;67903;52.108;9.358;2024-01-15T02:39:30;1.40;81.10
64987;DHT22;67903;52.108;9.358;2024-01-15T02:42:16;1.40;80.80
64987;DHT22;67903;52.108;9.358;2024-01-15T02:45:02;1.40;82.10
64987;DHT22;67903;52.108;9.358;2024-01-15T02:47:50;1.40;82.30
64987;DHT22;67903;52.108;9.358;2024-01-15T02:50:35;1.40;81.90
64987;DHT22;67903;52.108;9.358;2024-01-15T02:53:21;1.40;81.90
64987;DHT22;67903;52.108;9.358;2024-01-15T02:56:07;1.40;82.10
64987;DHT22;67903;52.108;9.358;2024-01-15T02:58:52;1.50;81.00
64987;DHT22;67903;52.108;9.358;2024-01-15T03:01:38;1.40;81.30
64987;DHT22;67903;52.108;9.358;2024-01-15T03:04:23;1.40;81.20
64987;DHT22;67903;52.108;9.358;2024-01-15T03:07:09;1.40;81.40
64987;DHT22;67903;52.108;9.358;2024-01-15T03:09:54;1.40;81.80
64987;DHT22;67903;52.108;9.358;2024-01-15T03:12:40;1.50;81.50
64987;DHT22;67903;52.108;9.358;2024-01-15T03:15:26;1.40;81.80
64987;DHT22;67903;52.108;9.358;2024-01-15T03:18:11;1.40;82.20
64987;DHT22;67903;52.108;9.358;2024-01-15T03:20:56;1.40;82.70
64987;DHT22;67903;52.108;9.358;2024-01-15T03:23:42;1.40;82.80
64987;DHT22;67903;52.108;9.358;2024-01-15T03:26:28;1.40;83.10
64987;DHT22;67903;52.108;9.358;2024-01-15T03:29:13;1.40;84.00
64987;DHT22;67903;52.108;9.358;2024-01-15T03:31:59;1.40;83.90
64987;DHT22;67903;52.108;9.358;2024-01-15T03:34:44;1.30;84.50
64987;DHT22;67903;52.108;9.358;2024-01-15T03:37:30;1.40;83.00
64987;DHT22;67903;52.108;9.358;2024-01-15T03:40:16;1.40;83.20
64987;DHT22;67903;52.108;9.358;2024-01-15T03:43:07;1.40;83.00
64987;DHT22;67903;52.108;9.358;2024-01-15T03:45:53;1.40;82.90
64987;DHT22;67903;52.108;9.358;2024-01-15T03:48:38;1.40;82.00
64987;DHT22;67903;52.108;9.358;2024-01-15T03:51:24;1.50;82.40
64987;DHT22;67903;52.108;9.358;2024-01-15T03:54:10;1.50;82.40
64987;DHT22;67903;52.108;9.358;2024-01-15T03:56:55;1.50;82.20
64987;DHT22;67903;52.108;9.358;2024-01-15T03:59:41;1.50;81.80
64987;DHT22;67903;52.108;9.358;2024-01-15T04:02:27;1.50;82.00
64987;DHT22;67903;52.108;9.358;2024-01-15T04:05:13;1.50;81.70
64987;DHT22;67903;52.108;9.358;2024-01-15T04:07:58;1.50;82.10
64987;DHT22;67903;52.108;9.358;2024-01-15T04:10:44;1.50;82.10
64987;DHT22;67903;52.108;9.358;2024-01-15T04:13:32;1.50;82.50
64987;DHT22;67903;52.108;9.358;2024-01-15T04:16:18;1.40;83.60
64987;DHT22;67903;52.108;9.358;2024-01-15T04:19:03;1.40;84.00
64987;DHT22;67903;52.108;9.358;2024-01-15T04:21:49;1.40;84.30
64987;DHT22;67903;52.108;9.358;2024-01-15T04:24:34;1.40;83.90
64987;DHT22;67903;52.108;9.358;2024-01-15T04:27:20;1.50;83.20
64987;DHT22;67903;52.108;9.358;2024-01-15T04:30:06;1.50;83.50
64987;DHT22;67903;52.108;9.358;2024-01-15T04:32:51;1.50;83.10
64987;DHT22;67903;52.108;9.358;2024-01-15T04:35:37;1.50;83.60
64987;DHT22;67903;52.108;9.358;2024-01-15T04:38:22;1.50;83.80
64987;DHT22;67903;52.108;9.358;2024-01-15T04:41:12;1.50;83.40
64987;DHT22;67903;52.108;9.358;2024-01-15T04:43:58;1.50;83.70
64987;DHT22;67903;52.108;9.358;2024-01-15T04:46:45;1.40;84.00
64987;DHT22;67903;52.108;9.358;2024-01-15T04:49:31;1.40;84.50
64987;DHT22;67903;52.108;9.358;2024-01-15T04:52:17;1.40;84.00
64987;DHT22;67903;52.108;9.358;2024-01-15T04:55:02;1.50;84.30
64987;DHT22;67903;52.108;9.358;2024-01-15T04:57:48;1.40;84.40
64987;DHT22;67903;52.108;9.358;2024-01-15T05:00:34;1.50;84.40
64987;DHT22;67903;52.108;9.358;2024-01-15T05:03:19;1.40;84.80
64987;DHT22;67903;52.108;9.358;2024-01-15T05:06:05;1.50;83.40
64987;DHT22;67903;52.108;9.358;2024-01-15T05:08:51;1.50;83.90
64987;DHT22;67903;52.108;9.358;2024-01-15T05:11:37;1.40;84.20
64987;DHT22;67903;52.108;9.358;2024-01-15T05:14:22;1.50;84.00
64987;DHT22;67903;52.108;9.358;2024-01-15T05:17:07;1.40;84.70
64987;DHT22;67903;52.108;9.358;2024-01-15T05:19:56;1.40;85.30
64987;DHT22;67903;52.108;9.358;2024-01-15T05:22:42;1.40;84.50
64987;DHT22;67903;52.108;9.358;2024-01-15T05:25:27;1.40;85.60
64987;DHT22;67903;52.108;9.358;2024-01-15T05:28:14;1.40;86.00
64987;DHT22;67903;52.108;9.358;2024-01-15T05:30:59;1.40;85.80
64987;DHT22;67903;52.108;9.358;2024-01-15T05:33:45;1.40;84.90
64987;DHT22;67903;52.108;9.358;2024-01-15T05:36:31;1.40;85.30
64987;DHT22;67903;52.108;9.358;2024-01-15T05:39:16;1.40;85.10
64987;DHT22;67903;52.108;9.358;2024-01-15T05:42:04;1.40;85.00
64987;DHT22;67903;52.108;9.358;2024-01-15T05:44:50;1.50;84.60
64987;DHT22;67903;52.108;9.358;2024-01-15T05:47:35;1.40;85.10
64987;DHT22;67903;52.108;9.358;2024-01-15T05:50:21;1.40;85.30
64987;DHT22;67903;52.108;9.358;2024-01-15T05:53:07;1.40;84.80
64987;DHT22;67903;52.108;9.358;2024-01-15T05:55:52;1.40;85.30
64987;DHT22;67903;52.108;9.358;2024-01-15T05:58:39;1.40;85.40
64987;DHT22;67903;52.108;9.358;2024-01-15T06:01:24;1.40;87.60
64987;DHT22;67903;52.108;9.358;2024-01-15T06:04:10;1.20;87.50
64987;DHT22;67903;52.108;9.358;2024-01-15T06:06:55;1.20;87.80
64987;DHT22;67903;52.108;9.358;2024-01-15T06:09:41;1.20;88.10
64987;DHT22;67903;52.108;9.358;2024-01-15T06:12:28;1.30;87.80
64987;DHT22;67903;52.108;9.358;2024-01-15T06:15:13;1.40;87.50
64987;DHT22;67903;52.108;9.358;2024-01-15T06:17:59;1.30;87.90
64987;DHT22;67903;52.108;9.358;2024-01-15T06:20:44;1.40;86.00
64987;DHT22;67903;52.108;9.358;2024-01-15T06:23:30;1.40;86.30
64987;DHT22;67903;52.108;9.358;2024-01-15T06:26:15;1.40;85.60
64987;DHT22;67903;52.108;9.358;2024-01-15T06:29:01;1.40;85.60
64987;DHT22;67903;52.108;9.358;2024-01-15T06:31:47;1.20;86.60
64987;DHT22;67903;52.108;9.358;2024-01-15T06:34:33;1.20;87.10
64987;DHT22;67903;52.108;9.358;2024-01-15T06:37:19;1.30;86.70
64987;DHT22;67903;52.108;9.358;2024-01-15T06:40:05;1.20;87.30
64987;DHT22;67903;52.108;9.358;2024-01-15T06:42:51;1.20;87.70
64987;DHT22;67903;52.108;9.358;2024-01-15T06:45:37;1.00;90.20
64987;DHT22;67903;52.108;9.358;2024-01-15T06:48:22;1.00;90.10
64987;DHT22;67903;52.108;9.358;2024-01-15T06:51:08;1.00;90.20
64987;DHT22;67903;52.108;9.358;2024-01-15T06:53:53;1.10;89.50
64987;DHT22;67903;52.108;9.358;2024-01-15T06:56:39;1.00;89.10
64987;DHT22;67903;52.108;9.358;2024-01-15T06:59:24;1.00;91.10
64987;DHT22;67903;52.108;9.358;2024-01-15T07:02:10;0.80;91.90
64987;DHT22;67903;52.108;9.358;2024-01-15T07:04:55;0.90;92.20
64987;DHT22;67903;52.108;9.358;2024-01-15T07:07:41;1.00;91.00
64987;DHT22;67903;52.108;9.358;2024-01-15T07:10:26;1.00;91.20
64987;DHT22;67903;52.108;9.358;2024-01-15T07:13:12;1.00;90.60
64987;DHT22;67903;52.108;9.358;2024-01-15T07:15:58;1.10;89.90
64987;DHT22;67903;52.108;9.358;2024-01-15T07:18:43;1.00;90.70
64987;DHT22;67903;52.108;9.358;2024-01-15T07:21:29;1.00;90.40
64987;DHT22;67903;52.108;9.358;2024-01-15T07:24:15;1.00;91.60
64987;DHT22;67903;52.108;9.358;2024-01-15T07:27:00;1.00;90.90
64987;DHT22;67903;52.108;9.358;2024-01-15T07:29:46;1.10;89.30
64987;DHT22;67903;52.108;9.358;2024-01-15T07:32:34;1.10;88.40
64987;DHT22;67903;52.108;9.358;2024-01-15T07:35:19;1.20;87.50
64987;DHT22;67903;52.108;9.358;2024-01-15T07:38:05;1.20;86.90
64987;DHT22;67903;52.108;9.358;2024-01-15T07:40:50;1.20;87.70
64987;DHT22;67903;52.108;9.358;2024-01-15T07:43:36;1.20;88.80
64987;DHT22;67903;52.108;9.358;2024-01-15T07:46:21;1.10;89.00
64987;DHT22;67903;52.108;9.358;2024-01-15T07:49:07;1.10;89.10
64987;DHT22;67903;52.108;9.358;2024-01-15T07:51:52;1.20;88.70
64987;DHT22;67903;52.108;9.358;2024-01-15T07:54:38;1.20;87.90
64987;DHT22;67903;52.108;9.358;2024-01-15T07:57:23;1.20;87.90
64987;DHT22;67903;52.108;9.358;2024-01-15T08:00:09;1.30;86.50
64987;DHT22;67903;52.108;9.358;2024-01-15T08:02:56;1.20;86.30
64987;DHT22;67903;52.108;9.358;2024-01-15T08:05:42;1.40;85.50
64987;DHT22;67903;52.108;9.358;2024-01-15T08:08:27;1.30;85.80
64987;DHT22;67903;52.108;9.358;2024-01-15T08:11:13;1.30;85.50
64987;DHT22;67903;52.108;9.358;2024-01-15T08:13:58;1.40;85.00
64987;DHT22;67903;52.108;9.358;2024-01-15T08:16:44;1.40;84.40
64987;DHT22;67903;52.108;9.358;2024-01-15T08:19:29;1.40;85.00
64987;DHT22;67903;52.108;9.358;2024-01-15T08:22:15;1.40;84.60
64987;DHT22;67903;52.108;9.358;2024-01-15T08:25:01;1.40;84.60
64987;DHT22;67903;52.108;9.358;2024-01-15T08:27:46;1.40;84.40
64987;DHT22;67903;52.108;9.358;2024-01-15T08:30:32;1.40;84.50
64987;DHT22;67903;52.108;9.358;2024-01-15T08:33:18;1.40;85.20
64987;DHT22;67903;52.108;9.358;2024-01-15T08:36:07;1.40;85.00
64987;DHT22;67903;52.108;9.358;2024-01-15T08:38:53;1.50;84.60
64987;DHT22;67903;52.108;9.358;2024-01-15T08:41:38;1.50;84.00
64987;DHT22;67903;52.108;9.358;2024-01-15T08:44:24;1.40;84.70
64987;DHT22;67903;52.108;9.358;2024-01-15T08:47:09;1.40;84.10
64987;DHT22;67903;52.108;9.358;2024-01-15T08:49:55;1.40;84.50
64987;DHT22;67903;52.108;9.358;2024-01-15T08:52:41;1.40;84.90
64987;DHT22;67903;52.108;9.358;2024-01-15T08:55:26;1.50;84.50
64987;DHT22;67903;52.108;9.358;2024-01-15T08:58:11;1.50;84.40
64987;DHT22;67903;52.108;9.358;2024-01-15T09:00:57;1.50;84.70
64987;DHT22;67903;52.108;9.358;2024-01-15T09:03:43;1.50;84.20
64987;DHT22;67903;52.108;9.358;2024-01-15T09:06:28;1.50;84.70
64987;DHT22;67903;52.108;9.358;2024-01-15T09:09:14;1.50;84.40
64987;DHT22;67903;52.108;9.358;2024-01-15T09:12:02;1.50;83.00
64987;DHT22;67903;52.108;9.358;2024-01-15T09:14:47;1.50;84.40
64987;DHT22;67903;52.108;9.358;2024-01-15T09:17:33;1.50;83.90
64987;DHT22;67903;52.108;9.358;2024-01-15T09:20:19;1.50;82.80
64987;DHT22;67903;52.108;9.358;2024-01-15T09:23:04;1.60;82.70
64987;DHT22;67903;52.108;9.358;2024-01-15T09:25:50;1.70;83.10
64987;DHT22;67903;52.108;9.358;2024-01-15T09:28:37;1.70;82.40
64987;DHT22;67903;52.108;9.358;2024-01-15T09:31:23;1.70;83.10
64987;DHT22;67903;52.108;9.358;2024-01-15T09:34:09;1.60;83.10
64987;DHT22;67903;52.108;9.358;2024-01-15T09:36:55;1.60;83.70
64987;DHT22;67903;52.108;9.358;2024-01-15T09:39:41;1.50;83.60
64987;DHT22;67903;52.108;9.358;2024-01-15T09:42:28;1.50;83.00
64987;DHT22;67903;52.108;9.358;2024-01-15T09:45:13;1.50;83.70
64987;DHT22;67903;52.108;9.358;2024-01-15T09:48:00;1.40;83.70
64987;DHT22;67903;52.108;9.358;2024-01-15T09:50:46;1.40;84.20
64987;DHT22;67903;52.108;9.358;2024-01-15T09:53:33;1.40;84.40
64987;DHT22;67903;52.108;9.358;2024-01-15T09:56:19;1.30;84.20
64987;DHT22;67903;52.108;9.358;2024-01-15T09:59:05;1.40;84.10
64987;DHT22;67903;52.108;9.358;2024-01-15T10:01:52;1.40;84.40
64987;DHT22;67903;52.108;9.358;2024-01-15T10:04:38;1.40;84.50
64987;DHT22;67903;52.108;9.358;2024-01-15T10:07:25;1.40;83.90
64987;DHT22;67903;52.108;9.358;2024-01-15T10:10:11;1.40;84.00
64987;DHT22;67903;52.108;9.358;2024-01-15T10:12:58;1.40;83.00
64987;DHT22;67903;52.108;9.358;2024-01-15T10:15:46;1.60;82.40
64987;DHT22;67903;52.108;9.358;2024-01-15T10:18:32;1.70;81.90
64987;DHT22;67903;52.108;9.358;2024-01-15T10:21:18;1.70;81.80
64987;DHT22;67903;52.108;9.358;2024-01-15T10:24:04;1.80;81.60
64987;DHT22;67903;52.108;9.358;2024-01-15T10:26:50;1.70;81.70
64987;DHT22;67903;52.108;9.358;2024-01-15T10:29:35;1.60;82.20
64987;DHT22;67903;52.108;9.358;2024-01-15T10:32:21;1.70;82.60
64987;DHT22;67903;52.108;9.358;2024-01-15T10:35:09;1.70;81.80
64987;DHT22;67903;52.108;9.358;2024-01-15T10:37:55;1.70;81.90
64987;DHT22;67903;52.108;9.358;2024-01-15T10:40:41;1.70;80.20
64987;DHT22;67903;52.108;9.358;2024-01-15T10:43:27;1.70;80.70
64987;DHT22;67903;52.108;9.358;2024-01-15T10:46:13;1.70;80.20
64987;DHT22;67903;52.108;9.358;2024-01-15T10:48:59;1.70;80.80
64987;DHT22;67903;52.108;9.358;2024-01-15T10:51:46;1.70;80.50
64987;DHT22;67903;52.108;9.358;2024-01-15T10:54:32;1.60;79.80
64987;DHT22;67903;52.108;9.358;2024-01-15T10:57:21;1.60;79.90
64987;DHT22;67903;52.108;9.358;2024-01-15T11:00:07;1.70;80.20
64987;DHT22;67903;52.108;9.358;2024-01-15T11:02:54;1.70;79.50
64987;DHT22;67903;52.108;9.358;2024-01-15T11:05:44;1.60;80.40
64987;DHT22;67903;52.108;9.358;2024-01-15T11:08:30;1.70;80.90
64987;DHT22;67903;52.108;9.358;2024-01-15T11:11:17;1.60;80.50
64987;DHT22;67903;52.108;9.358;2024-01-15T11:14:03;1.60;81.10
64987;DHT22;67903;52.108;9.358;2024-01-15T11:16:56;1.60;80.90
64987;DHT22;67903;52.108;9.358;2024-01-15T11:25:18;1.70;79.70
64987;DHT22;67903;52.108;9.358;2024-01-15T11:28:04;1.70;78.80
64987;DHT22;67903;52.108;9.358;2024-01-15T11:30:49;1.70;78.10
64987;DHT22;67903;52.108;9.358;2024-01-15T11:33:35;1.80;78.10
64987;DHT22;67903;52.108;9.358;2024-01-15T11:36:28;1.70;78.00
64987;DHT22;67903;52.108;9.358;2024-01-15T11:42:20;1.80;77.60
64987;DHT22;67903;52.108;9.358;2024-01-15T11:45:05;1.90;76.60
64987;DHT22;67903;52.108;9.358;2024-01-15T11:50:58;1.90;76.20
64987;DHT22;67903;52.108;9.358;2024-01-15T11:53:48;1.90;76.00
64987;DHT22;67903;52.108;9.358;2024-01-15T11:56:33;1.80;76.20
64987;DHT22;67903;52.108;9.358;2024-01-15T11:59:19;1.80;76.40
64987;DHT22;67903;52.108;9.358;2024-01-15T12:02:05;1.80;76.50
64987;DHT22;67903;52.108;9.358;2024-01-15T12:04:51;1.80;76.90
64987;DHT22;67903;52.108;9.358;2024-01-15T12:07:36;1.80;76.60
64987;DHT22;67903;52.108;9.358;2024-01-15T12:10:22;1.80;76.40
64987;DHT22;67903;52.108;9.358;2024-01-15T12:13:12;1.80;76.40
64987;DHT22;67903;52.108;9.358;2024-01-15T12:16:01;1.80;76.30
64987;DHT22;67903;52.108;9.358;2024-01-15T12:18:49;1.90;77.20
64987;DHT22;67903;52.108;9.358;2024-01-15T12:21:34;1.90;75.60
64987;DHT22;67903;52.108;9.358;2024-01-15T12:24:20;1.90;76.20
64987;DHT22;67903;52.108;9.358;2024-01-15T12:27:05;2.00;76.10
64987;DHT22;67903;52.108;9.358;2024-01-15T12:29:53;2.00;75.70
64987;DHT22;67903;52.108;9.358;2024-01-15T12:32:40;2.10;76.10
64987;DHT22;67903;52.108;9.358;2024-01-15T12:35:26;2.10;74.50
64987;DHT22;67903;52.108;9.358;2024-01-15T12:38:12;2.10;73.90
64987;DHT22;67903;52.108;9.358;2024-01-15T12:40:59;2.00;74.10
64987;DHT22;67903;52.108;9.358;2024-01-15T12:43:46;2.00;74.40
64987;DHT22;67903;52.108;9.358;2024-01-15T12:46:32;2.00;74.70
64987;DHT22;67903;52.108;9.358;2024-01-15T12:49:17;1.90;73.90
64987;DHT22;67903;52.108;9.358;2024-01-15T12:52:03;1.90;75.00
64987;DHT22;67903;52.108;9.358;2024-01-15T12:54:51;1.90;75.10
64987;DHT22;67903;52.108;9.358;2024-01-15T12:57:37;1.90;74.80
64987;DHT22;67903;52.108;9.358;2024-01-15T13:00:23;2.00;74.40
64987;DHT22;67903;52.108;9.358;2024-01-15T13:03:11;2.00;73.40
64987;DHT22;67903;52.108;9.358;2024-01-15T13:05:56;1.90;74.30
64987;DHT22;67903;52.108;9.358;2024-01-15T13:08:42;2.00;74.70
64987;DHT22;67903;52.108;9.358;2024-01-15T13:11:28;2.00;74.60
64987;DHT22;67903;52.108;9.358;2024-01-15T13:14:13;1.90;74.70
64987;DHT22;67903;52.108;9.358;2024-01-15T13:16:59;1.90;74.80
64987;DHT22;67903;52.108;9.358;2024-01-15T13:19:44;2.00;75.10
64987;DHT22;67903;52.108;9.358;2024-01-15T13:22:30;1.90;74.40
64987;DHT22;67903;52.108;9.358;2024-01-15T13:25:18;1.90;74.90
64987;DHT22;67903;52.108;9.358;2024-01-15T13:28:04;1.90;74.70
64987;DHT22;67903;52.108;9.358;2024-01-15T13:30:50;2.00;75.00
64987;DHT22;67903;52.108;9.358;2024-01-15T13:33:36;2.00;75.50
64987;DHT22;67903;52.108;9.358;2024-01-15T13:36:26;2.00;75.00
64987;DHT22;67903;52.108;9.358;2024-01-15T13:39:11;2.00;75.00
64987;DHT22;67903;52.108;9.358;2024-01-15T13:41:57;1.90;74.50
64987;DHT22;67903;52.108;9.358;2024-01-15T13:44:43;1.90;74.80
64987;DHT22;67903;52.108;9.358;2024-01-15T13:47:29;1.90;74.60
64987;DHT22;67903;52.108;9.358;2024-01-15T13:50:14;1.90;75.20
64987;DHT22;67903;52.108;9.358;2024-01-15T13:53:00;1.80;77.60
64987;DHT22;67903;52.108;9.358;2024-01-15T13:55:45;1.70;77.60
64987;DHT22;67903;52.108;9.358;2024-01-15T13:58:31;1.70;77.80
64987;DHT22;67903;52.108;9.358;2024-01-15T14:01:18;1.70;78.20
64987;DHT22;67903;52.108;9.358;2024-01-15T14:04:03;1.60;77.50
64987;DHT22;67903;52.108;9.358;2024-01-15T14:06:49;1.70;77.60
64987;DHT22;67903;52.108;9.358;2024-01-15T14:09:34;1.70;78.00
64987;DHT22;67903;52.108;9.358;2024-01-15T14:12:20;1.70;78.60
64987;DHT22;67903;52.108;9.358;2024-01-15T14:15:06;1.60;79.30
64987;DHT22;67903;52.108;9.358;2024-01-15T14:17:51;1.60;79.70
64987;DHT22;67903;52.108;9.358;2024-01-15T14:20:38;1.60;79.80
64987;DHT22;67903;52.108;9.358;2024-01-15T14:23:24;1.60;78.70
64987;DHT22;67903;52.108;9.358;2024-01-15T14:26:09;1.60;79.30
64987;DHT22;67903;52.108;9.358;2024-01-15T14:28:54;1.60;80.10
64987;DHT22;67903;52.108;9.358;2024-01-15T14:31:40;1.60;79.90
64987;DHT22;67903;52.108;9.358;2024-01-15T14:34:26;1.50;80.80
64987;DHT22;67903;52.108;9.358;2024-01-15T14:37:12;1.40;82.50
64987;DHT22;67903;52.108;9.358;2024-01-15T14:39:57;1.40;83.40
64987;DHT22;67903;52.108;9.358;2024-01-15T14:42:43;1.20;85.00
64987;DHT22;67903;52.108;9.358;2024-01-15T14:45:28;1.20;85.70
64987;DHT22;67903;52.108;9.358;2024-01-15T14:48:15;1.40;83.60
64987;DHT22;67903;52.108;9.358;2024-01-15T14:51:01;1.40;82.60
64987;DHT22;67903;52.108;9.358;2024-01-15T14:53:48;1.40;82.80
64987;DHT22;67903;52.108;9.358;2024-01-15T14:56:33;1.50;81.80
64987;DHT22;67903;52.108;9.358;2024-01-15T14:59:19;1.50;81.50
64987;DHT22;67903;52.108;9.358;2024-01-15T15:02:05;1.50;82.80
64987;DHT22;67903;52.108;9.358;2024-01-15T15:04:50;1.40;83.60
64987;DHT22;67903;52.108;9.358;2024-01-15T15:07:36;1.40;83.70
64987;DHT22;67903;52.108;9.358;2024-01-15T15:10:22;1.50;83.30
64987;DHT22;67903;52.108;9.358;2024-01-15T15:13:08;1.50;83.50
64987;DHT22;67903;52.108;9.358;2024-01-15T15:15:53;1.40;83.60
64987;DHT22;67903;52.108;9.358;2024-01-15T15:18:40;1.40;84.70
64987;DHT22;67903;52.108;9.358;2024-01-15T15:21:25;1.30;85.40
64987;DHT22;67903;52.108;9.358;2024-01-15T15:24:11;1.30;85.80
64987;DHT22;67903;52.108;9.358;2024-01-15T15:26:57;1.40;85.60
64987;DHT22;67903;52.108;9.358;2024-01-15T15:29:42;1.40;85.10
64987;DHT22;67903;52.108;9.358;2024-01-15T15:32:28;1.40;84.70
64987;DHT22;67903;52.108;9.358;2024-01-15T15:35:13;1.30;84.20
64987;DHT22;67903;52.108;9.358;2024-01-15T15:37:59;1.30;84.10
64987;DHT22;67903;52.108;9.358;2024-01-15T15:40:45;1.40;83.50
64987;DHT22;67903;52.108;9.358;2024-01-15T15:43:31;1.30;83.70
64987;DHT22;67903;52.108;9.358;2024-01-15T15:46:16;1.40;83.40
64987;DHT22;67903;52.108;9.358;2024-01-15T15:49:02;1.40;84.20
64987;DHT22;67903;52.108;9.358;2024-01-15T15:51:52;1.30;84.40
64987;DHT22;67903;52.108;9.358;2024-01-15T15:54:38;1.30;85.00
64987;DHT22;67903;52.108;9.358;2024-01-15T15:57:23;1.40;84.30
64987;DHT22;67903;52.108;9.358;2024-01-15T16:00:12;1.40;83.60
64987;DHT22;67903;52.108;9.358;2024-01-15T16:02:57;1.40;84.30
64987;DHT22;67903;52.108;9.358;2024-01-15T16:05:43;1.40;82.90
64987;DHT22;67903;52.108;9.358;2024-01-15T16:08:37;1.40;82.30
64987;DHT22;67903;52.108;9.358;2024-01-15T16:11:23;1.40;81.90
64987;DHT22;67903;52.108;9.358;2024-01-15T16:14:08;1.40;82.10
64987;DHT22;67903;52.108;9.358;2024-01-15T16:16:55;1.40;82.30
64987;DHT22;67903;52.108;9.358;2024-01-15T16:20:02;1.20;82.60
64987;DHT22;67903;52.108;9.358;2024-01-15T16:23:08;1.20;83.70
64987;DHT22;67903;52.108;9.358;2024-01-15T16:26:14;1.20;83.40
64987;DHT22;67903;52.108;9.358;2024-01-15T16:29:00;1.20;83.80
64987;DHT22;67903;52.108;9.358;2024-01-15T16:31:49;1.20;82.00
64987;DHT22;67903;52.108;9.358;2024-01-15T16:34:34;1.20;81.40
64987;DHT22;67903;52.108;9.358;2024-01-15T16:37:20;1.30;81.20
64987;DHT22;67903;52.108;9.358;2024-01-15T16:40:06;1.20;81.50
64987;DHT22;67903;52.108;9.358;2024-01-15T16:42:53;1.30;81.50
64987;DHT22;67903;52.108;9.358;2024-01-15T16:45:39;1.30;80.80
64987;DHT22;67903;52.108;9.358;2024-01-15T16:48:25;1.20;81.20
64987;DHT22;67903;52.108;9.358;2024-01-15T16:51:11;1.20;81.30
64987;DHT22;67903;52.108;9.358;2024-01-15T16:53:57;1.30;80.70
64987;DHT22;67903;52.108;9.358;2024-01-15T16:56:43;1.30;80.40
64987;DHT22;67903;52.108;9.358;2024-01-15T16:59:29;1.30;80.40
64987;DHT22;67903;52.108;9.358;2024-01-15T17:02:15;1.40;80.20
64987;DHT22;67903;52.108;9.358;2024-01-15T17:05:01;1.40;80.00
64987;DHT22;67903;52.108;9.358;2024-01-15T17:07:46;1.40;80.00
64987;DHT22;67903;52.108;9.358;2024-01-15T17:10:32;1.40;80.00
64987;DHT22;67903;52.108;9.358;2024-01-15T17:13:18;1.40;79.70
64987;DHT22;67903;52.108;9.358;2024-01-15T17:16:04;1.40;79.20
64987;DHT22;67903;52.108;9.358;2024-01-15T17:18:49;1.40;79.40
64987;DHT22;67903;52.108;9.358;2024-01-15T17:21:35;1.40;79.60
64987;DHT22;67903;52.108;9.358;2024-01-15T17:24:21;1.40;79.20
64987;DHT22;67903;52.108;9.358;2024-01-15T17:27:07;1.40;78.70
64987;DHT22;67903;52.108;9.358;2024-01-15T17:29:53;1.40;78.80
64987;DHT22;67903;52.108;9.358;2024-01-15T17:32:40;1.30;78.50
64987;DHT22;67903;52.108;9.358;2024-01-15T17:35:26;1.30;78.60
64987;DHT22;67903;52.108;9.358;2024-01-15T17:38:11;1.20;79.30
64987;DHT22;67903;52.108;9.358;2024-01-15T17:40:57;1.20;78.40
64987;DHT22;67903;52.108;9.358;2024-01-15T17:43:43;1.10;79.30
64987;DHT22;67903;52.108;9.358;2024-01-15T17:46:28;1.10;79.50
64987;DHT22;67903;52.108;9.358;2024-01-15T17:49:14;1.20;79.10
64987;DHT22;67903;52.108;9.358;2024-01-15T17:52:00;1.20;78.90
64987;DHT22;67903;52.108;9.358;2024-01-15T17:54:45;1.10;79.70
64987;DHT22;67903;52.108;9.358;2024-01-15T17:57:30;1.20;79.60